sensor_id;sensor_type;location;lat;lon;timestamp;P1;durP1;ratioP1;P2;durP2;ratioP2
12348;SDS011;5974;42.710;27.258;2022-11-20T00:00:18;13.80;;;5.77;;
12348;SDS011;5974;42.710;27.258;2022-11-20T00:02:44;23.27;;;6.53;;
12348;SDS011;5974;42.710;27.258;2022-11-20T00:05:12;16.10;;;6.00;;
12348;SDS011;5974;42.710;27.258;2022-11-20T00:07:39;13.63;;;5.83;;
12348;SDS011;5974;42.710;27.258;2022-11-20T00:10:07;15.27;;;5.93;;
12348;SDS011;5974;42.710;27.258;2022-11-20T00:12:34;19.13;;;6.17;;
12348;SDS011;5974;42.710;27.258;2022-11-20T00:15:01;13.90;;;5.40;;
12348;SDS011;5974;42.710;27.258;2022-11-20T00:17:27;14.70;;;5.60;;
12348;SDS011;5974;42.710;27.258;2022-11-20T00:19:54;12.20;;;4.80;;
12348;SDS011;5974;42.710;27.258;2022-11-20T00:22:22;16.97;;;4.87;;
12348;SDS011;5974;42.710;27.258;2022-11-20T00:24:48;14.40;;;5.07;;
12348;SDS011;5974;42.710;27.258;2022-11-20T00:27:15;11.40;;;4.97;;
12348;SDS011;5974;42.710;27.258;2022-11-20T00:29:42;17.37;;;6.10;;
12348;SDS011;5974;42.710;27.258;2022-11-20T00:32:08;12.10;;;4.77;;
12348;SDS011;5974;42.710;27.258;2022-11-20T00:34:35;15.00;;;5.17;;
12348;SDS011;5974;42.710;27.258;2022-11-20T00:37:01;12.03;;;4.87;;
12348;SDS011;5974;42.710;27.258;2022-11-20T00:39:29;10.23;;;4.70;;
12348;SDS011;5974;42.710;27.258;2022-11-20T00:41:56;14.30;;;4.87;;
12348;SDS011;5974;42.710;27.258;2022-11-20T00:44:23;11.17;;;4.50;;
12348;SDS011;5974;42.710;27.258;2022-11-20T00:46:49;14.83;;;4.67;;
12348;SDS011;5974;42.710;27.258;2022-11-20T00:49:16;11.60;;;4.47;;
12348;SDS011;5974;42.710;27.258;2022-11-20T00:51:42;10.87;;;4.63;;
12348;SDS011;5974;42.710;27.258;2022-11-20T00:54:09;16.77;;;4.87;;
12348;SDS011;5974;42.710;27.258;2022-11-20T00:56:37;15.50;;;4.60;;
12348;SDS011;5974;42.710;27.258;2022-11-20T00:59:04;18.53;;;5.00;;
12348;SDS011;5974;42.710;27.258;2022-11-20T01:01:30;15.53;;;4.60;;
12348;SDS011;5974;42.710;27.258;2022-11-20T01:03:58;14.43;;;5.13;;
12348;SDS011;5974;42.710;27.258;2022-11-20T01:06:25;17.33;;;5.00;;
12348;SDS011;5974;42.710;27.258;2022-11-20T01:08:52;13.80;;;4.40;;
12348;SDS011;5974;42.710;27.258;2022-11-20T01:11:19;13.87;;;4.87;;
12348;SDS011;5974;42.710;27.258;2022-11-20T01:13:48;13.67;;;4.30;;
12348;SDS011;5974;42.710;27.258;2022-11-20T01:16:16;15.23;;;4.33;;
12348;SDS011;5974;42.710;27.258;2022-11-20T01:18:43;13.77;;;4.30;;
12348;SDS011;5974;42.710;27.258;2022-11-20T01:21:11;14.83;;;4.50;;
12348;SDS011;5974;42.710;27.258;2022-11-20T01:23:38;13.27;;;4.50;;
12348;SDS011;5974;42.710;27.258;2022-11-20T01:26:06;17.10;;;3.83;;
12348;SDS011;5974;42.710;27.258;2022-11-20T01:28:33;16.57;;;4.10;;
12348;SDS011;5974;42.710;27.258;2022-11-20T01:31:01;13.67;;;4.80;;
12348;SDS011;5974;42.710;27.258;2022-11-20T01:33:28;17.27;;;4.50;;
12348;SDS011;5974;42.710;27.258;2022-11-20T01:36:02;13.17;;;4.10;;
12348;SDS011;5974;42.710;27.258;2022-11-20T01:38:29;14.40;;;3.93;;
12348;SDS011;5974;42.710;27.258;2022-11-20T01:40:55;12.10;;;3.90;;
12348;SDS011;5974;42.710;27.258;2022-11-20T01:43:22;12.53;;;4.30;;
12348;SDS011;5974;42.710;27.258;2022-11-20T01:48:42;12.27;;;3.70;;
12348;SDS011;5974;42.710;27.258;2022-11-20T01:51:10;19.43;;;4.20;;
12348;SDS011;5974;42.710;27.258;2022-11-20T01:53:39;14.20;;;3.73;;
12348;SDS011;5974;42.710;27.258;2022-11-20T01:56:07;17.07;;;4.47;;
12348;SDS011;5974;42.710;27.258;2022-11-20T01:58:35;19.03;;;4.23;;
12348;SDS011;5974;42.710;27.258;2022-11-20T02:01:03;13.90;;;4.00;;
12348;SDS011;5974;42.710;27.258;2022-11-20T02:03:30;17.13;;;4.37;;
12348;SDS011;5974;42.710;27.258;2022-11-20T02:06:00;17.87;;;4.23;;
12348;SDS011;5974;42.710;27.258;2022-11-20T02:08:28;13.73;;;3.80;;
12348;SDS011;5974;42.710;27.258;2022-11-20T02:10:55;15.63;;;3.87;;
12348;SDS011;5974;42.710;27.258;2022-11-20T02:13:22;14.00;;;3.60;;
12348;SDS011;5974;42.710;27.258;2022-11-20T02:16:08;12.67;;;3.60;;
12348;SDS011;5974;42.710;27.258;2022-11-20T02:18:35;13.40;;;3.27;;
12348;SDS011;5974;42.710;27.258;2022-11-20T02:23:56;17.53;;;3.80;;
12348;SDS011;5974;42.710;27.258;2022-11-20T02:26:23;10.17;;;4.13;;
12348;SDS011;5974;42.710;27.258;2022-11-20T02:28:51;16.17;;;4.60;;
12348;SDS011;5974;42.710;27.258;2022-11-20T02:31:17;16.43;;;5.10;;
12348;SDS011;5974;42.710;27.258;2022-11-20T02:33:44;13.73;;;4.73;;
12348;SDS011;5974;42.710;27.258;2022-11-20T02:36:11;17.33;;;4.50;;
12348;SDS011;5974;42.710;27.258;2022-11-20T02:38:40;16.67;;;4.57;;
12348;SDS011;5974;42.710;27.258;2022-11-20T02:41:09;10.30;;;4.50;;
12348;SDS011;5974;42.710;27.258;2022-11-20T02:43:35;15.63;;;4.57;;
12348;SDS011;5974;42.710;27.258;2022-11-20T02:46:02;16.93;;;4.60;;
12348;SDS011;5974;42.710;27.258;2022-11-20T02:48:29;18.77;;;4.63;;
12348;SDS011;5974;42.710;27.258;2022-11-20T02:50:55;12.73;;;4.53;;
12348;SDS011;5974;42.710;27.258;2022-11-20T02:53:22;17.03;;;4.87;;
12348;SDS011;5974;42.710;27.258;2022-11-20T02:55:49;19.60;;;5.20;;
12348;SDS011;5974;42.710;27.258;2022-11-20T02:58:17;20.50;;;4.70;;
12348;SDS011;5974;42.710;27.258;2022-11-20T03:00:43;16.03;;;4.93;;
12348;SDS011;5974;42.710;27.258;2022-11-20T03:03:10;14.60;;;5.27;;
12348;SDS011;5974;42.710;27.258;2022-11-20T03:05:37;17.83;;;4.93;;
12348;SDS011;5974;42.710;27.258;2022-11-20T03:08:03;14.53;;;4.60;;
12348;SDS011;5974;42.710;27.258;2022-11-20T03:10:30;21.57;;;4.37;;
12348;SDS011;5974;42.710;27.258;2022-11-20T03:12:56;18.47;;;4.70;;
12348;SDS011;5974;42.710;27.258;2022-11-20T03:15:24;18.37;;;5.63;;
12348;SDS011;5974;42.710;27.258;2022-11-20T03:17:52;19.47;;;5.80;;
12348;SDS011;5974;42.710;27.258;2022-11-20T03:20:20;13.40;;;5.30;;
12348;SDS011;5974;42.710;27.258;2022-11-20T03:22:47;12.30;;;5.00;;
12348;SDS011;5974;42.710;27.258;2022-11-20T03:25:13;19.40;;;5.73;;
12348;SDS011;5974;42.710;27.258;2022-11-20T03:27:40;15.73;;;5.10;;
12348;SDS011;5974;42.710;27.258;2022-11-20T03:30:07;14.50;;;5.20;;
12348;SDS011;5974;42.710;27.258;2022-11-20T03:32:35;13.63;;;5.00;;
12348;SDS011;5974;42.710;27.258;2022-11-20T03:35:02;15.43;;;4.90;;
12348;SDS011;5974;42.710;27.258;2022-11-20T03:37:29;16.17;;;4.70;;
12348;SDS011;5974;42.710;27.258;2022-11-20T03:39:55;21.73;;;5.60;;
12348;SDS011;5974;42.710;27.258;2022-11-20T03:42:22;20.40;;;6.60;;
12348;SDS011;5974;42.710;27.258;2022-11-20T03:45:06;17.83;;;5.13;;
12348;SDS011;5974;42.710;27.258;2022-11-20T03:47:33;14.87;;;4.57;;
12348;SDS011;5974;42.710;27.258;2022-11-20T03:50:01;14.67;;;4.27;;
12348;SDS011;5974;42.710;27.258;2022-11-20T03:52:28;19.17;;;4.53;;
12348;SDS011;5974;42.710;27.258;2022-11-20T03:54:55;17.03;;;4.50;;
12348;SDS011;5974;42.710;27.258;2022-11-20T03:57:21;20.10;;;4.70;;
12348;SDS011;5974;42.710;27.258;2022-11-20T03:59:48;14.73;;;4.40;;
12348;SDS011;5974;42.710;27.258;2022-11-20T04:02:15;16.20;;;3.87;;
12348;SDS011;5974;42.710;27.258;2022-11-20T04:04:41;12.50;;;4.07;;
12348;SDS011;5974;42.710;27.258;2022-11-20T04:07:09;11.37;;;4.17;;
12348;SDS011;5974;42.710;27.258;2022-11-20T04:09:36;13.40;;;4.37;;
12348;SDS011;5974;42.710;27.258;2022-11-20T04:12:03;15.03;;;4.17;;
12348;SDS011;5974;42.710;27.258;2022-11-20T04:14:29;18.43;;;4.27;;
12348;SDS011;5974;42.710;27.258;2022-11-20T04:16:56;14.30;;;4.87;;
12348;SDS011;5974;42.710;27.258;2022-11-20T04:19:22;18.97;;;4.90;;
12348;SDS011;5974;42.710;27.258;2022-11-20T04:21:49;17.40;;;5.30;;
12348;SDS011;5974;42.710;27.258;2022-11-20T04:24:17;12.83;;;4.63;;
12348;SDS011;5974;42.710;27.258;2022-11-20T04:26:44;19.40;;;5.00;;
12348;SDS011;5974;42.710;27.258;2022-11-20T04:29:11;14.07;;;4.80;;
12348;SDS011;5974;42.710;27.258;2022-11-20T04:31:38;12.67;;;4.33;;
12348;SDS011;5974;42.710;27.258;2022-11-20T04:34:05;12.73;;;4.50;;
12348;SDS011;5974;42.710;27.258;2022-11-20T04:36:31;14.63;;;4.63;;
12348;SDS011;5974;42.710;27.258;2022-11-20T04:38:59;17.47;;;4.50;;
12348;SDS011;5974;42.710;27.258;2022-11-20T04:41:27;17.97;;;5.00;;
12348;SDS011;5974;42.710;27.258;2022-11-20T04:43:56;17.47;;;4.83;;
12348;SDS011;5974;42.710;27.258;2022-11-20T04:46:24;16.70;;;4.00;;
12348;SDS011;5974;42.710;27.258;2022-11-20T04:48:51;18.23;;;4.40;;
12348;SDS011;5974;42.710;27.258;2022-11-20T04:51:18;11.70;;;3.60;;
12348;SDS011;5974;42.710;27.258;2022-11-20T04:53:44;15.13;;;4.13;;
12348;SDS011;5974;42.710;27.258;2022-11-20T04:56:11;14.90;;;4.47;;
12348;SDS011;5974;42.710;27.258;2022-11-20T04:58:39;17.47;;;4.20;;
12348;SDS011;5974;42.710;27.258;2022-11-20T05:01:06;18.27;;;4.17;;
12348;SDS011;5974;42.710;27.258;2022-11-20T05:03:33;14.70;;;4.43;;
12348;SDS011;5974;42.710;27.258;2022-11-20T05:06:00;15.93;;;4.20;;
12348;SDS011;5974;42.710;27.258;2022-11-20T05:08:27;13.27;;;4.10;;
12348;SDS011;5974;42.710;27.258;2022-11-20T05:10:53;17.97;;;4.77;;
12348;SDS011;5974;42.710;27.258;2022-11-20T05:13:20;15.40;;;4.83;;
12348;SDS011;5974;42.710;27.258;2022-11-20T05:15:48;14.63;;;4.53;;
12348;SDS011;5974;42.710;27.258;2022-11-20T05:18:14;17.63;;;5.30;;
12348;SDS011;5974;42.710;27.258;2022-11-20T05:20:41;17.93;;;5.10;;
12348;SDS011;5974;42.710;27.258;2022-11-20T05:23:09;15.47;;;4.67;;
12348;SDS011;5974;42.710;27.258;2022-11-20T05:25:36;16.57;;;5.50;;
12348;SDS011;5974;42.710;27.258;2022-11-20T05:28:02;16.80;;;5.97;;
12348;SDS011;5974;42.710;27.258;2022-11-20T05:30:30;20.40;;;6.13;;
12348;SDS011;5974;42.710;27.258;2022-11-20T05:32:58;15.60;;;5.27;;
12348;SDS011;5974;42.710;27.258;2022-11-20T05:35:25;21.70;;;5.37;;
12348;SDS011;5974;42.710;27.258;2022-11-20T05:37:51;16.77;;;6.13;;
12348;SDS011;5974;42.710;27.258;2022-11-20T05:40:18;19.53;;;6.80;;
12348;SDS011;5974;42.710;27.258;2022-11-20T05:42:45;16.23;;;6.60;;
12348;SDS011;5974;42.710;27.258;2022-11-20T05:45:12;18.33;;;5.47;;
12348;SDS011;5974;42.710;27.258;2022-11-20T05:47:38;17.17;;;4.80;;
12348;SDS011;5974;42.710;27.258;2022-11-20T05:50:06;17.70;;;6.00;;
12348;SDS011;5974;42.710;27.258;2022-11-20T05:52:33;20.03;;;6.33;;
12348;SDS011;5974;42.710;27.258;2022-11-20T05:55:00;22.83;;;6.40;;
12348;SDS011;5974;42.710;27.258;2022-11-20T05:57:27;17.00;;;6.00;;
12348;SDS011;5974;42.710;27.258;2022-11-20T05:59:53;27.57;;;6.37;;
12348;SDS011;5974;42.710;27.258;2022-11-20T06:02:20;22.67;;;5.27;;
12348;SDS011;5974;42.710;27.258;2022-11-20T06:04:47;15.63;;;5.23;;
12348;SDS011;5974;42.710;27.258;2022-11-20T06:07:15;15.70;;;5.50;;
12348;SDS011;5974;42.710;27.258;2022-11-20T06:09:42;17.00;;;5.50;;
12348;SDS011;5974;42.710;27.258;2022-11-20T06:12:08;19.17;;;4.97;;
12348;SDS011;5974;42.710;27.258;2022-11-20T06:14:35;25.97;;;6.33;;
12348;SDS011;5974;42.710;27.258;2022-11-20T06:17:02;16.73;;;4.80;;
12348;SDS011;5974;42.710;27.258;2022-11-20T06:19:28;18.47;;;5.33;;
12348;SDS011;5974;42.710;27.258;2022-11-20T06:21:55;17.03;;;4.67;;
12348;SDS011;5974;42.710;27.258;2022-11-20T06:24:23;17.70;;;8.50;;
12348;SDS011;5974;42.710;27.258;2022-11-20T06:26:50;30.03;;;11.33;;
12348;SDS011;5974;42.710;27.258;2022-11-20T06:29:17;20.03;;;6.10;;
12348;SDS011;5974;42.710;27.258;2022-11-20T06:31:43;21.27;;;6.10;;
12348;SDS011;5974;42.710;27.258;2022-11-20T06:34:10;15.83;;;4.97;;
12348;SDS011;5974;42.710;27.258;2022-11-20T06:36:37;17.63;;;5.33;;
12348;SDS011;5974;42.710;27.258;2022-11-20T06:39:03;14.30;;;4.30;;
12348;SDS011;5974;42.710;27.258;2022-11-20T06:41:31;16.57;;;4.67;;
12348;SDS011;5974;42.710;27.258;2022-11-20T06:43:58;16.57;;;4.33;;
12348;SDS011;5974;42.710;27.258;2022-11-20T06:46:25;16.57;;;4.43;;
12348;SDS011;5974;42.710;27.258;2022-11-20T06:48:52;13.50;;;4.03;;
12348;SDS011;5974;42.710;27.258;2022-11-20T06:51:18;19.40;;;4.83;;
12348;SDS011;5974;42.710;27.258;2022-11-20T06:53:46;15.10;;;5.27;;
12348;SDS011;5974;42.710;27.258;2022-11-20T06:56:13;20.83;;;5.70;;
12348;SDS011;5974;42.710;27.258;2022-11-20T06:58:41;15.03;;;4.43;;
12348;SDS011;5974;42.710;27.258;2022-11-20T07:01:09;16.63;;;4.60;;
12348;SDS011;5974;42.710;27.258;2022-11-20T07:03:36;15.73;;;4.90;;
12348;SDS011;5974;42.710;27.258;2022-11-20T07:06:03;21.20;;;5.20;;
12348;SDS011;5974;42.710;27.258;2022-11-20T07:08:30;22.43;;;4.90;;
12348;SDS011;5974;42.710;27.258;2022-11-20T07:10:57;20.70;;;5.10;;
12348;SDS011;5974;42.710;27.258;2022-11-20T07:13:24;18.80;;;4.43;;
12348;SDS011;5974;42.710;27.258;2022-11-20T07:15:53;15.90;;;5.17;;
12348;SDS011;5974;42.710;27.258;2022-11-20T07:18:19;24.37;;;5.20;;
12348;SDS011;5974;42.710;27.258;2022-11-20T07:20:46;16.43;;;4.33;;
12348;SDS011;5974;42.710;27.258;2022-11-20T07:23:12;24.47;;;4.87;;
12348;SDS011;5974;42.710;27.258;2022-11-20T07:25:39;15.27;;;4.23;;
12348;SDS011;5974;42.710;27.258;2022-11-20T07:28:06;17.70;;;5.93;;
12348;SDS011;5974;42.710;27.258;2022-11-20T07:30:33;18.00;;;5.33;;
12348;SDS011;5974;42.710;27.258;2022-11-20T07:33:01;15.20;;;4.57;;
12348;SDS011;5974;42.710;27.258;2022-11-20T07:35:28;20.23;;;4.90;;
12348;SDS011;5974;42.710;27.258;2022-11-20T07:37:54;15.33;;;4.57;;
12348;SDS011;5974;42.710;27.258;2022-11-20T07:40:21;21.60;;;4.97;;
12348;SDS011;5974;42.710;27.258;2022-11-20T07:42:48;20.57;;;5.20;;
12348;SDS011;5974;42.710;27.258;2022-11-20T07:45:15;18.13;;;5.10;;
12348;SDS011;5974;42.710;27.258;2022-11-20T07:47:41;19.63;;;5.03;;
12348;SDS011;5974;42.710;27.258;2022-11-20T07:50:10;17.73;;;5.00;;
12348;SDS011;5974;42.710;27.258;2022-11-20T07:52:38;22.57;;;5.30;;
12348;SDS011;5974;42.710;27.258;2022-11-20T07:55:05;15.67;;;4.53;;
12348;SDS011;5974;42.710;27.258;2022-11-20T07:57:31;17.77;;;5.30;;
12348;SDS011;5974;42.710;27.258;2022-11-20T07:59:58;16.03;;;5.40;;
12348;SDS011;5974;42.710;27.258;2022-11-20T08:02:25;25.50;;;5.33;;
12348;SDS011;5974;42.710;27.258;2022-11-20T08:04:51;21.37;;;5.60;;
12348;SDS011;5974;42.710;27.258;2022-11-20T08:07:19;19.30;;;5.83;;
12348;SDS011;5974;42.710;27.258;2022-11-20T08:09:46;19.33;;;5.23;;
12348;SDS011;5974;42.710;27.258;2022-11-20T08:12:16;17.77;;;6.50;;
12348;SDS011;5974;42.710;27.258;2022-11-20T08:15:00;18.80;;;6.10;;
12348;SDS011;5974;42.710;27.258;2022-11-20T08:17:27;22.20;;;7.23;;
12348;SDS011;5974;42.710;27.258;2022-11-20T08:19:54;21.50;;;5.77;;
12348;SDS011;5974;42.710;27.258;2022-11-20T08:22:23;22.77;;;7.17;;
12348;SDS011;5974;42.710;27.258;2022-11-20T08:24:49;16.57;;;5.83;;
12348;SDS011;5974;42.710;27.258;2022-11-20T08:27:16;23.73;;;7.97;;
12348;SDS011;5974;42.710;27.258;2022-11-20T08:29:43;22.57;;;5.07;;
12348;SDS011;5974;42.710;27.258;2022-11-20T08:32:09;17.93;;;5.10;;
12348;SDS011;5974;42.710;27.258;2022-11-20T08:34:36;19.23;;;5.37;;
12348;SDS011;5974;42.710;27.258;2022-11-20T08:37:03;20.27;;;6.00;;
12348;SDS011;5974;42.710;27.258;2022-11-20T08:39:31;19.93;;;6.23;;
12348;SDS011;5974;42.710;27.258;2022-11-20T08:41:59;20.00;;;5.83;;
12348;SDS011;5974;42.710;27.258;2022-11-20T08:44:26;16.87;;;6.10;;
12348;SDS011;5974;42.710;27.258;2022-11-20T08:46:54;19.87;;;6.23;;
12348;SDS011;5974;42.710;27.258;2022-11-20T08:49:22;15.90;;;5.63;;
12348;SDS011;5974;42.710;27.258;2022-11-20T08:51:48;18.77;;;5.07;;
12348;SDS011;5974;42.710;27.258;2022-11-20T08:54:18;14.07;;;4.20;;
12348;SDS011;5974;42.710;27.258;2022-11-20T08:56:48;20.47;;;5.00;;
12348;SDS011;5974;42.710;27.258;2022-11-20T08:59:15;18.43;;;5.00;;
12348;SDS011;5974;42.710;27.258;2022-11-20T09:01:41;18.00;;;5.43;;
12348;SDS011;5974;42.710;27.258;2022-11-20T09:04:08;22.80;;;5.03;;
12348;SDS011;5974;42.710;27.258;2022-11-20T09:06:34;22.73;;;5.07;;
12348;SDS011;5974;42.710;27.258;2022-11-20T09:09:01;28.57;;;5.67;;
12348;SDS011;5974;42.710;27.258;2022-11-20T09:11:28;22.80;;;5.20;;
12348;SDS011;5974;42.710;27.258;2022-11-20T09:13:55;25.70;;;5.20;;
12348;SDS011;5974;42.710;27.258;2022-11-20T09:16:22;20.07;;;5.50;;
12348;SDS011;5974;42.710;27.258;2022-11-20T09:18:49;18.30;;;4.80;;
12348;SDS011;5974;42.710;27.258;2022-11-20T09:21:16;18.67;;;4.87;;
12348;SDS011;5974;42.710;27.258;2022-11-20T09:23:43;17.13;;;5.00;;
12348;SDS011;5974;42.710;27.258;2022-11-20T09:26:10;16.10;;;5.07;;
12348;SDS011;5974;42.710;27.258;2022-11-20T09:28:37;18.73;;;5.47;;
12348;SDS011;5974;42.710;27.258;2022-11-20T09:31:06;23.70;;;5.53;;
12348;SDS011;5974;42.710;27.258;2022-11-20T09:33:33;23.90;;;6.73;;
12348;SDS011;5974;42.710;27.258;2022-11-20T09:36:00;27.60;;;6.67;;
12348;SDS011;5974;42.710;27.258;2022-11-20T09:38:27;20.77;;;5.87;;
12348;SDS011;5974;42.710;27.258;2022-11-20T09:40:55;25.40;;;5.67;;
12348;SDS011;5974;42.710;27.258;2022-11-20T09:43:25;22.33;;;4.90;;
12348;SDS011;5974;42.710;27.258;2022-11-20T09:46:02;15.80;;;4.93;;
12348;SDS011;5974;42.710;27.258;2022-11-20T09:48:42;19.53;;;5.10;;
12348;SDS011;5974;42.710;27.258;2022-11-20T09:51:13;20.33;;;5.20;;
12348;SDS011;5974;42.710;27.258;2022-11-20T09:53:44;24.53;;;5.97;;
12348;SDS011;5974;42.710;27.258;2022-11-20T09:56:12;17.20;;;5.23;;
12348;SDS011;5974;42.710;27.258;2022-11-20T09:58:40;20.43;;;5.93;;
12348;SDS011;5974;42.710;27.258;2022-11-20T10:01:10;17.43;;;5.13;;
12348;SDS011;5974;42.710;27.258;2022-11-20T10:03:41;23.37;;;4.93;;
12348;SDS011;5974;42.710;27.258;2022-11-20T10:06:10;19.80;;;5.03;;
12348;SDS011;5974;42.710;27.258;2022-11-20T10:08:39;23.37;;;7.30;;
12348;SDS011;5974;42.710;27.258;2022-11-20T10:11:09;52.20;;;20.77;;
12348;SDS011;5974;42.710;27.258;2022-11-20T10:13:40;30.33;;;12.40;;
12348;SDS011;5974;42.710;27.258;2022-11-20T10:16:12;31.90;;;13.50;;
12348;SDS011;5974;42.710;27.258;2022-11-20T10:18:51;27.90;;;7.27;;
12348;SDS011;5974;42.710;27.258;2022-11-20T10:21:23;26.97;;;8.40;;
12348;SDS011;5974;42.710;27.258;2022-11-20T10:23:57;27.03;;;9.30;;
12348;SDS011;5974;42.710;27.258;2022-11-20T10:26:26;24.17;;;9.93;;
12348;SDS011;5974;42.710;27.258;2022-11-20T10:28:58;28.67;;;8.47;;
12348;SDS011;5974;42.710;27.258;2022-11-20T10:31:29;21.80;;;7.27;;
12348;SDS011;5974;42.710;27.258;2022-11-20T10:33:59;32.80;;;8.43;;
12348;SDS011;5974;42.710;27.258;2022-11-20T10:36:27;24.77;;;8.03;;
12348;SDS011;5974;42.710;27.258;2022-11-20T10:38:56;28.73;;;7.13;;
12348;SDS011;5974;42.710;27.258;2022-11-20T10:41:26;28.10;;;7.83;;
12348;SDS011;5974;42.710;27.258;2022-11-20T10:43:58;31.73;;;9.67;;
12348;SDS011;5974;42.710;27.258;2022-11-20T10:46:33;24.23;;;7.67;;
12348;SDS011;5974;42.710;27.258;2022-11-20T10:52:09;29.17;;;8.60;;
12348;SDS011;5974;42.710;27.258;2022-11-20T10:54:39;28.37;;;8.67;;
12348;SDS011;5974;42.710;27.258;2022-11-20T10:57:07;22.57;;;7.20;;
12348;SDS011;5974;42.710;27.258;2022-11-20T10:59:45;26.70;;;6.90;;
12348;SDS011;5974;42.710;27.258;2022-11-20T11:02:14;31.37;;;6.20;;
12348;SDS011;5974;42.710;27.258;2022-11-20T11:04:43;31.40;;;7.80;;
12348;SDS011;5974;42.710;27.258;2022-11-20T11:07:12;23.50;;;5.80;;
12348;SDS011;5974;42.710;27.258;2022-11-20T11:09:41;31.00;;;6.50;;
12348;SDS011;5974;42.710;27.258;2022-11-20T11:12:09;26.33;;;6.43;;
12348;SDS011;5974;42.710;27.258;2022-11-20T11:14:43;20.77;;;5.50;;
12348;SDS011;5974;42.710;27.258;2022-11-20T11:17:21;33.60;;;7.00;;
12348;SDS011;5974;42.710;27.258;2022-11-20T11:19:56;26.83;;;6.77;;
12348;SDS011;5974;42.710;27.258;2022-11-20T11:22:25;27.97;;;6.57;;
12348;SDS011;5974;42.710;27.258;2022-11-20T11:24:52;27.10;;;7.27;;
12348;SDS011;5974;42.710;27.258;2022-11-20T11:27:19;27.90;;;6.70;;
12348;SDS011;5974;42.710;27.258;2022-11-20T11:29:46;25.07;;;6.90;;
12348;SDS011;5974;42.710;27.258;2022-11-20T11:32:13;27.93;;;7.03;;
12348;SDS011;5974;42.710;27.258;2022-11-20T11:34:40;29.17;;;7.50;;
12348;SDS011;5974;42.710;27.258;2022-11-20T11:37:10;25.97;;;6.00;;
12348;SDS011;5974;42.710;27.258;2022-11-20T11:39:40;24.97;;;6.77;;
12348;SDS011;5974;42.710;27.258;2022-11-20T11:42:08;25.83;;;6.77;;
12348;SDS011;5974;42.710;27.258;2022-11-20T11:44:37;24.83;;;7.57;;
12348;SDS011;5974;42.710;27.258;2022-11-20T11:47:29;26.97;;;6.53;;
12348;SDS011;5974;42.710;27.258;2022-11-20T11:50:08;31.17;;;6.87;;
12348;SDS011;5974;42.710;27.258;2022-11-20T11:52:41;30.37;;;6.23;;
12348;SDS011;5974;42.710;27.258;2022-11-20T11:55:12;29.67;;;6.07;;
12348;SDS011;5974;42.710;27.258;2022-11-20T11:57:41;29.13;;;6.57;;
12348;SDS011;5974;42.710;27.258;2022-11-20T12:00:09;31.17;;;9.60;;
12348;SDS011;5974;42.710;27.258;2022-11-20T12:02:38;26.53;;;6.67;;
12348;SDS011;5974;42.710;27.258;2022-11-20T12:05:13;32.90;;;7.03;;
12348;SDS011;5974;42.710;27.258;2022-11-20T12:07:43;22.87;;;6.33;;
12348;SDS011;5974;42.710;27.258;2022-11-20T12:10:15;26.70;;;7.67;;
12348;SDS011;5974;42.710;27.258;2022-11-20T12:12:43;24.70;;;6.60;;
12348;SDS011;5974;42.710;27.258;2022-11-20T12:15:11;32.50;;;7.30;;
12348;SDS011;5974;42.710;27.258;2022-11-20T12:17:39;27.13;;;8.17;;
12348;SDS011;5974;42.710;27.258;2022-11-20T12:20:10;29.80;;;6.90;;
12348;SDS011;5974;42.710;27.258;2022-11-20T12:22:40;33.37;;;7.00;;
12348;SDS011;5974;42.710;27.258;2022-11-20T12:25:08;27.30;;;6.90;;
12348;SDS011;5974;42.710;27.258;2022-11-20T12:27:45;27.17;;;6.53;;
12348;SDS011;5974;42.710;27.258;2022-11-20T12:30:16;26.63;;;6.67;;
12348;SDS011;5974;42.710;27.258;2022-11-20T12:32:50;27.50;;;7.00;;
12348;SDS011;5974;42.710;27.258;2022-11-20T12:35:29;33.17;;;7.07;;
12348;SDS011;5974;42.710;27.258;2022-11-20T12:38:02;26.30;;;6.70;;
12348;SDS011;5974;42.710;27.258;2022-11-20T12:40:34;26.17;;;6.73;;
12348;SDS011;5974;42.710;27.258;2022-11-20T12:43:06;31.50;;;7.53;;
12348;SDS011;5974;42.710;27.258;2022-11-20T12:48:54;21.37;;;6.40;;
12348;SDS011;5974;42.710;27.258;2022-11-20T12:51:34;35.67;;;6.77;;
12348;SDS011;5974;42.710;27.258;2022-11-20T12:54:16;33.17;;;7.00;;
12348;SDS011;5974;42.710;27.258;2022-11-20T12:56:48;28.00;;;7.90;;
12348;SDS011;5974;42.710;27.258;2022-11-20T12:59:23;28.93;;;6.73;;
12348;SDS011;5974;42.710;27.258;2022-11-20T13:01:54;30.27;;;6.57;;
12348;SDS011;5974;42.710;27.258;2022-11-20T13:04:31;31.17;;;6.87;;
12348;SDS011;5974;42.710;27.258;2022-11-20T13:07:00;38.93;;;7.53;;
12348;SDS011;5974;42.710;27.258;2022-11-20T13:09:27;32.83;;;9.00;;
12348;SDS011;5974;42.710;27.258;2022-11-20T13:11:58;28.53;;;7.77;;
12348;SDS011;5974;42.710;27.258;2022-11-20T13:14:31;39.30;;;12.07;;
12348;SDS011;5974;42.710;27.258;2022-11-20T13:17:00;33.23;;;9.30;;
12348;SDS011;5974;42.710;27.258;2022-11-20T13:19:30;41.50;;;9.07;;
12348;SDS011;5974;42.710;27.258;2022-11-20T13:21:58;39.77;;;11.57;;
12348;SDS011;5974;42.710;27.258;2022-11-20T13:24:25;34.83;;;12.33;;
12348;SDS011;5974;42.710;27.258;2022-11-20T13:27:05;35.23;;;11.33;;
12348;SDS011;5974;42.710;27.258;2022-11-20T13:29:45;40.40;;;10.60;;
12348;SDS011;5974;42.710;27.258;2022-11-20T13:32:13;41.90;;;15.93;;
12348;SDS011;5974;42.710;27.258;2022-11-20T13:34:50;40.40;;;13.27;;
12348;SDS011;5974;42.710;27.258;2022-11-20T13:37:24;59.30;;;15.77;;
12348;SDS011;5974;42.710;27.258;2022-11-20T13:39:51;32.17;;;9.47;;
12348;SDS011;5974;42.710;27.258;2022-11-20T13:42:23;37.03;;;10.17;;
12348;SDS011;5974;42.710;27.258;2022-11-20T13:44:53;34.20;;;9.93;;
12348;SDS011;5974;42.710;27.258;2022-11-20T13:47:21;35.03;;;9.77;;
12348;SDS011;5974;42.710;27.258;2022-11-20T13:49:49;40.17;;;11.57;;
12348;SDS011;5974;42.710;27.258;2022-11-20T13:52:27;35.80;;;10.97;;
12348;SDS011;5974;42.710;27.258;2022-11-20T13:54:59;38.00;;;10.97;;
12348;SDS011;5974;42.710;27.258;2022-11-20T13:57:38;41.53;;;10.07;;
12348;SDS011;5974;42.710;27.258;2022-11-20T14:00:11;39.87;;;11.57;;
12348;SDS011;5974;42.710;27.258;2022-11-20T14:02:38;41.10;;;13.07;;
12348;SDS011;5974;42.710;27.258;2022-11-20T14:05:04;43.07;;;14.37;;
12348;SDS011;5974;42.710;27.258;2022-11-20T14:07:32;39.40;;;14.80;;
12348;SDS011;5974;42.710;27.258;2022-11-20T14:10:01;39.93;;;14.50;;
12348;SDS011;5974;42.710;27.258;2022-11-20T14:12:28;44.03;;;12.47;;
12348;SDS011;5974;42.710;27.258;2022-11-20T14:14:55;47.40;;;14.27;;
12348;SDS011;5974;42.710;27.258;2022-11-20T14:17:29;40.00;;;12.20;;
12348;SDS011;5974;42.710;27.258;2022-11-20T14:19:57;41.13;;;12.40;;
12348;SDS011;5974;42.710;27.258;2022-11-20T14:22:25;44.30;;;10.00;;
12348;SDS011;5974;42.710;27.258;2022-11-20T14:25:00;42.67;;;11.33;;
12348;SDS011;5974;42.710;27.258;2022-11-20T14:27:27;49.47;;;12.07;;
12348;SDS011;5974;42.710;27.258;2022-11-20T14:29:54;43.47;;;9.80;;
12348;SDS011;5974;42.710;27.258;2022-11-20T14:32:21;48.73;;;11.03;;
12348;SDS011;5974;42.710;27.258;2022-11-20T14:34:53;46.13;;;11.00;;
12348;SDS011;5974;42.710;27.258;2022-11-20T14:37:21;37.17;;;12.57;;
12348;SDS011;5974;42.710;27.258;2022-11-20T14:39:50;39.27;;;13.00;;
12348;SDS011;5974;42.710;27.258;2022-11-20T14:42:18;45.67;;;11.00;;
12348;SDS011;5974;42.710;27.258;2022-11-20T14:44:45;53.73;;;12.97;;
12348;SDS011;5974;42.710;27.258;2022-11-20T14:47:13;46.07;;;10.20;;
12348;SDS011;5974;42.710;27.258;2022-11-20T14:49:41;35.53;;;9.87;;
12348;SDS011;5974;42.710;27.258;2022-11-20T14:52:13;38.50;;;9.13;;